Time;durP1;ratioP1;P1;durP2;ratioP2;P2;SDS_P1;SDS_P2;PMS_P1;PMS_P2;Temp;Humidity;BMP_temperature;BMP_pressure;BME280_temperature;BME280_humidity;BME280_pressure;Samples;Min_cycle;Max_cycle;Signal;HPM_P1;HPM_P2
2022/07/24 00:01:24;;;;;;;17.10;13.88;;;;;;;20.50;72.74;98690.13;5090170;28;20427;-72
2022/07/24 00:03:50;;;;;;;16.95;14.98;;;;;;;20.46;73.26;98690.06;5089490;28;20731;-73
2022/07/24 00:06:15;;;;;;;16.73;15.05;;;;;;;20.45;73.31;98685.66;5090266;28;20028;-72
2022/07/24 00:08:41;;;;;;;17.10;15.30;;;;;;;20.43;73.58;98687.16;5089399;28;20436;-71
2022/07/24 00:11:06;;;;;;;16.67;14.88;;;;;;;20.40;73.14;98685.91;5089567;28;20019;-72
2022/07/24 00:13:32;;;;;;;17.88;15.02;;;;;;;20.39;73.73;98687.06;5089493;28;20655;-72
2022/07/24 00:15:57;;;;;;;17.95;15.57;;;;;;;20.40;73.53;98682.28;5089503;28;20103;-71
2022/07/24 00:18:22;;;;;;;16.80;15.00;;;;;;;20.41;73.63;98690.31;5088774;28;20032;-72
2022/07/24 00:20:48;;;;;;;17.02;15.23;;;;;;;20.42;73.81;98691.09;5089590;28;20484;-72
2022/07/24 00:23:13;;;;;;;19.00;16.50;;;;;;;20.45;73.57;98695.97;5071287;28;20024;-72
2022/07/24 00:25:39;;;;;;;16.85;15.02;;;;;;;20.47;73.90;98691.66;5089518;28;20008;-72
2022/07/24 00:28:04;;;;;;;17.95;16.05;;;;;;;20.49;73.82;98699.66;5090048;28;20028;-72
2022/07/24 00:30:30;;;;;;;17.30;14.93;;;;;;;20.51;74.17;98698.16;5090051;28;20032;-72
2022/07/24 00:32:55;;;;;;;17.08;15.25;;;;;;;20.49;73.89;98694.91;5089458;28;20365;-72
2022/07/24 00:35:20;;;;;;;17.25;15.45;;;;;;;20.49;74.28;98699.66;5089650;28;20013;-72
2022/07/24 00:37:46;;;;;;;18.20;15.85;;;;;;;20.45;73.71;98699.56;5089778;28;20473;-72
2022/07/24 00:40:12;;;;;;;19.88;16.25;;;;;;;20.45;74.13;98699.56;5087770;28;20054;-71
2022/07/24 00:42:38;;;;;;;18.63;16.05;;;;;;;20.41;73.93;98706.19;5089391;28;20705;-71
2022/07/24 00:45:04;;;;;;;17.33;15.52;;;;;;;20.41;73.96;98700.63;5091230;28;20077;-72
2022/07/24 00:47:29;;;;;;;20.85;16.77;;;;;;;20.42;74.32;98705.84;5093403;28;20020;-71
2022/07/24 00:49:55;;;;;;;19.10;16.13;;;;;;;20.36;74.00;98707.28;5093180;28;20016;-71
2022/07/24 00:52:20;;;;;;;16.55;14.85;;;;;;;20.35;74.34;98711.22;5092612;28;20024;-72
2022/07/24 00:54:46;;;;;;;17.88;16.02;;;;;;;20.29;74.42;98705.13;5092897;28;20395;-72
2022/07/24 00:57:11;;;;;;;20.30;17.70;;;;;;;20.24;74.00;98713.72;5093376;28;20028;-71
2022/07/24 00:59:37;;;;;;;19.48;16.35;;;;;;;20.18;74.27;98710.34;5092845;28;20486;-71
2022/07/24 01:02:02;;;;;;;17.80;15.77;;;;;;;20.14;74.37;98717.84;5092803;28;20012;-72
2022/07/24 01:04:28;;;;;;;19.55;16.60;;;;;;;20.12;74.21;98708.19;5092458;28;20027;-72
2022/07/24 01:06:53;;;;;;;19.42;16.02;;;;;;;20.09;74.41;98706.94;5093149;28;20403;-72
2022/07/24 01:09:19;;;;;;;16.52;14.30;;;;;;;20.07;75.13;98701.72;5092961;28;20019;-72
2022/07/24 01:11:45;;;;;;;18.42;16.45;;;;;;;20.01;74.57;98705.91;5092641;28;20032;-71
2022/07/24 01:14:13;;;;;;;19.85;17.67;;;;;;;19.97;75.54;98706.97;5092504;28;20123;-71
2022/07/24 01:16:39;;;;;;;18.00;16.10;;;;;;;19.90;75.15;98700.03;5092486;28;20075;-71
2022/07/24 01:19:04;;;;;;;19.67;17.55;;;;;;;19.85;75.03;98702.25;5092529;28;20101;-72
2022/07/24 01:21:30;;;;;;;19.00;16.05;;;;;;;19.79;75.25;98704.44;5092419;28;20044;-72
2022/07/24 01:23:55;;;;;;;19.00;16.05;;;;;;;19.75;74.89;98709.91;5092638;28;20024;-72
2022/07/24 01:26:21;;;;;;;17.50;15.70;;;;;;;19.76;75.00;98705.97;5092051;28;20024;-72
2022/07/24 01:28:46;;;;;;;16.98;14.20;;;;;;;19.73;74.97;98706.66;5092676;28;20038;-72
2022/07/24 01:31:12;;;;;;;17.50;15.60;;;;;;;19.74;74.95;98711.06;5092264;28;20686;-72
2022/07/24 01:33:37;;;;;;;16.65;14.93;;;;;;;19.73;74.67;98705.88;5092235;28;20028;-72
2022/07/24 01:36:03;;;;;;;22.08;15.77;;;;;;;19.73;75.06;98709.44;5091973;28;20381;-72
2022/07/24 01:38:28;;;;;;;18.02;15.05;;;;;;;19.73;74.65;98714.22;5092258;28;20032;-72
2022/07/24 01:40:53;;;;;;;16.67;14.20;;;;;;;19.74;74.71;98708.28;5092142;28;20468;-72
2022/07/24 01:43:19;;;;;;;17.85;14.63;;;;;;;19.75;74.65;98712.69;5091841;28;20028;-72
2022/07/24 01:45:44;;;;;;;18.23;14.60;;;;;;;;;;5092075;28;20052;-72
2022/07/24 01:48:11;;;;;;;16.52;14.18;;;;;;;19.76;74.29;98705.16;5091697;28;20457;-72
2022/07/24 01:50:36;;;;;;;18.88;15.07;;;;;;;19.75;74.36;98700.78;5092180;28;20540;-72
2022/07/24 01:53:02;;;;;;;16.40;14.02;;;;;;;19.72;74.09;98707.81;5091682;28;20023;-72
2022/07/24 01:55:28;;;;;;;18.27;14.23;;;;;;;19.71;74.22;98702.63;5091295;28;20522;-72
2022/07/24 01:57:53;;;;;;;16.55;14.05;;;;;;;19.68;74.01;98712.47;5091783;28;20103;-71
2022/07/24 02:00:18;;;;;;;16.08;13.57;;;;;;;19.66;74.21;98702.88;5091709;28;20039;-71
2022/07/24 02:02:44;;;;;;;17.17;13.55;;;;;;;19.64;74.02;98708.78;5091540;28;20507;-72
2022/07/24 02:05:15;;;;;;;18.60;14.50;;;;;;;19.62;73.95;98702.75;5092161;28;20099;-72
2022/07/24 02:07:42;;;;;;;18.48;14.75;;;;;;;19.59;74.36;98700.66;5091578;28;20020;-72
2022/07/24 02:10:12;;;;;;;17.73;14.00;;;;;;;19.56;73.92;98701.38;5089349;28;20024;-72
2022/07/24 02:12:37;;;;;;;15.07;13.43;;;;;;;19.54;74.16;98700.94;5091288;28;20031;-72
2022/07/24 02:15:05;;;;;;;16.67;14.38;;;;;;;19.49;74.00;98707.53;5091564;28;20020;-71
2022/07/24 02:17:30;;;;;;;17.05;14.55;;;;;;;19.46;73.84;98709.06;5092052;28;20103;-71
2022/07/24 02:19:55;;;;;;;17.20;14.20;;;;;;;19.41;73.98;98709.28;5091174;28;20189;-72
2022/07/24 02:22:21;;;;;;;16.90;14.20;;;;;;;19.37;73.96;98708.34;5091453;28;20636;-72
2022/07/24 02:24:46;;;;;;;18.33;14.70;;;;;;;19.35;73.84;98710.69;5091822;28;20528;-72
2022/07/24 02:27:12;;;;;;;17.02;15.18;;;;;;;19.33;74.50;98713.00;5091483;28;20487;-71
2022/07/24 02:29:37;;;;;;;17.35;15.35;;;;;;;19.24;74.06;98715.91;5092056;28;20038;-72
2022/07/24 02:32:03;;;;;;;16.35;14.30;;;;;;;19.15;74.40;98716.03;5091718;28;20024;-71
2022/07/24 02:34:28;;;;;;;16.70;14.55;;;;;;;19.05;74.56;98710.94;5091737;28;20032;-71
2022/07/24 02:36:53;;;;;;;17.77;14.25;;;;;;;19.00;74.87;98713.94;5091678;28;20020;-71
2022/07/24 02:39:19;;;;;;;18.48;13.85;;;;;;;18.93;74.48;98711.69;5091684;28;20047;-71
2022/07/24 02:41:44;;;;;;;14.55;12.98;;;;;;;18.89;74.59;98721.88;5091496;28;20031;-71
2022/07/24 02:44:10;;;;;;;15.77;12.48;;;;;;;18.82;74.72;98711.31;5091246;28;20031;-71
2022/07/24 02:46:36;;;;;;;13.40;12.00;;;;;;;18.74;74.78;98701.16;5091487;28;20032;-72
2022/07/24 02:49:01;;;;;;;13.80;11.73;;;;;;;18.69;74.70;98710.50;5091102;28;20040;-71
2022/07/24 02:51:26;;;;;;;16.08;11.90;;;;;;;18.63;75.64;98714.66;5091055;28;20103;-71
2022/07/24 02:53:52;;;;;;;14.88;11.45;;;;;;;18.56;74.77;98717.16;5091085;28;20054;-71
2022/07/24 02:56:17;;;;;;;12.93;11.63;;;;;;;18.50;74.76;98713.00;5090433;28;20107;-71
2022/07/24 02:58:43;;;;;;;16.52;12.98;;;;;;;18.43;74.72;98710.78;5090897;28;20321;-71
2022/07/24 03:01:09;;;;;;;15.82;12.15;;;;;;;18.41;74.58;98725.03;5090987;28;20028;-71
2022/07/24 03:03:34;;;;;;;15.02;11.05;;;;;;;18.35;74.67;98726.38;5090841;28;20475;-71
2022/07/24 03:06:00;;;;;;;12.75;10.88;;;;;;;18.32;74.77;98726.28;5091145;28;20390;-71
2022/07/24 03:08:25;;;;;;;11.70;10.32;;;;;;;18.28;74.70;98726.94;5089828;28;20028;-71
2022/07/24 03:10:50;;;;;;;11.63;10.48;;;;;;;18.24;74.73;98728.78;5090855;28;20036;-71
2022/07/24 03:13:16;;;;;;;11.32;10.13;;;;;;;18.21;74.50;98731.41;5090476;28;20074;-72
2022/07/24 03:15:41;;;;;;;11.52;10.25;;;;;;;18.20;74.64;98732.56;5090685;28;20028;-72
2022/07/24 03:18:07;;;;;;;15.48;10.45;;;;;;;18.18;74.29;98735.69;5072902;28;20028;-71
2022/07/24 03:20:32;;;;;;;11.77;10.55;;;;;;;18.16;74.66;98738.00;5090395;28;20040;-71
2022/07/24 03:22:58;;;;;;;12.10;10.48;;;;;;;18.14;74.55;98749.41;5090173;28;20086;-71
2022/07/24 03:25:24;;;;;;;12.23;9.93;;;;;;;18.10;74.39;98756.81;5090729;28;20150;-71
2022/07/24 03:27:49;;;;;;;11.95;9.63;;;;;;;18.09;74.54;98755.19;5089212;28;20039;-71
2022/07/24 03:30:16;;;;;;;11.45;9.23;;;;;;;18.08;74.33;98755.53;5086747;28;20114;-72
2022/07/24 03:32:42;;;;;;;11.57;10.00;;;;;;;18.07;74.27;98754.72;5071233;28;20035;-71
2022/07/24 03:35:08;;;;;;;12.32;9.18;;;;;;;18.07;74.49;98754.72;5089752;28;20028;-71
2022/07/24 03:37:33;;;;;;;12.95;9.55;;;;;;;18.04;74.26;98760.97;5090134;28;20028;-72
2022/07/24 03:39:59;;;;;;;11.75;8.70;;;;;;;18.04;74.24;98762.91;5090130;28;20118;-71
2022/07/24 03:42:25;;;;;;;12.52;9.40;;;;;;;18.02;74.17;98768.81;5089993;28;20113;-71
2022/07/24 03:44:50;;;;;;;11.57;9.70;;;;;;;17.99;74.18;98764.72;5089714;28;20044;-71
2022/07/24 03:47:16;;;;;;;10.80;9.57;;;;;;;17.97;74.27;98768.97;5089851;28;20541;-71
2022/07/24 03:49:41;;;;;;;9.98;8.98;;;;;;;17.96;74.17;98761.81;5090113;28;20469;-72
2022/07/24 03:52:07;;;;;;;10.23;8.98;;;;;;;17.98;73.89;98759.50;5090352;28;20024;-72
2022/07/24 03:54:32;;;;;;;10.98;8.93;;;;;;;17.99;74.09;98766.72;5090213;28;20426;-71
2022/07/24 03:56:57;;;;;;;11.13;9.02;;;;;;;18.00;74.08;98757.22;5090538;28;20036;-72
2022/07/24 03:59:23;;;;;;;10.20;8.68;;;;;;;18.01;73.89;98761.63;5089336;28;20384;-72
2022/07/24 04:01:48;;;;;;;9.73;8.52;;;;;;;18.01;74.00;98772.72;5090051;28;20081;-71
2022/07/24 04:04:14;;;;;;;9.65;8.65;;;;;;;17.99;73.96;98769.47;5090221;28;20471;-72
2022/07/24 04:06:42;;;;;;;9.48;7.78;;;;;;;17.97;74.34;98783.66;5090384;28;20016;-72
2022/07/24 04:09:08;;;;;;;9.77;8.75;;;;;;;17.96;74.16;98778.44;5069717;28;20077;-72
2022/07/24 04:11:34;;;;;;;9.88;8.45;;;;;;;17.94;74.40;98786.28;5090308;28;20065;-72
2022/07/24 04:14:00;;;;;;;9.18;8.27;;;;;;;17.91;74.65;98784.19;5090151;28;20032;-72
2022/07/24 04:16:25;;;;;;;9.43;8.05;;;;;;;17.91;74.32;98784.19;5071811;28;20130;-71
2022/07/24 04:18:51;;;;;;;10.13;8.75;;;;;;;17.94;74.32;98780.75;5089491;28;20035;-72
2022/07/24 04:21:16;;;;;;;10.07;8.35;;;;;;;17.96;74.22;98773.69;5089804;28;20047;-72
2022/07/24 04:23:42;;;;;;;9.43;7.72;;;;;;;17.98;74.80;98779.72;5071856;28;20028;-71
2022/07/24 04:26:08;;;;;;;10.55;8.68;;;;;;;18.00;74.21;98783.00;5090129;28;20027;-71
2022/07/24 04:28:34;;;;;;;11.02;8.77;;;;;;;18.03;74.46;98772.38;5089830;28;20559;-71
2022/07/24 04:30:59;;;;;;;11.13;8.80;;;;;;;18.06;74.44;98780.03;5090035;28;20028;-72
2022/07/24 04:33:24;;;;;;;9.65;8.65;;;;;;;18.07;74.21;98793.59;5089602;28;20039;-72
2022/07/24 04:35:50;;;;;;;9.70;8.68;;;;;;;18.09;74.29;98798.78;5090042;28;20754;-72
2022/07/24 04:38:15;;;;;;;8.38;7.57;;;;;;;18.11;74.62;98799.25;5089053;28;20120;-72
2022/07/24 04:40:41;;;;;;;10.65;7.15;;;;;;;18.15;74.37;98800.22;5089505;28;20024;-72
2022/07/24 04:43:07;;;;;;;9.73;8.20;;;;;;;18.16;74.20;98807.38;5088951;28;20020;-72
2022/07/24 04:45:33;;;;;;;8.20;7.35;;;;;;;18.21;73.97;98809.13;5089396;28;20540;-71
2022/07/24 04:48:00;;;;;;;11.05;7.90;;;;;;;18.27;73.85;98808.63;5089390;28;20106;-72
2022/07/24 04:50:25;;;;;;;10.20;7.95;;;;;;;18.33;74.21;98816.75;5088922;28;20028;-71
2022/07/24 04:52:51;;;;;;;8.63;7.53;;;;;;;18.37;73.77;98817.66;5086915;28;20031;-72
2022/07/24 04:55:16;;;;;;;8.35;7.60;;;;;;;18.43;73.90;98825.47;5090950;28;20024;-72
2022/07/24 04:57:42;;;;;;;10.55;8.10;;;;;;;18.49;74.12;98820.50;5090609;28;20487;-72
2022/07/24 05:00:11;;;;;;;9.15;7.65;;;;;;;18.54;73.79;98819.50;5090095;28;20024;-71
2022/07/24 05:02:36;;;;;;;9.83;7.57;;;;;;;18.59;73.69;98827.59;5089927;28;20024;-72
2022/07/24 05:05:02;;;;;;;9.00;8.10;;;;;;;18.63;73.69;98831.31;5090649;28;20020;-72
2022/07/24 05:07:28;;;;;;;9.40;7.93;;;;;;;18.66;73.65;98827.84;5090505;28;20473;-72
2022/07/24 05:09:53;;;;;;;10.05;7.85;;;;;;;18.70;73.44;98830.78;5090499;28;20028;-72
2022/07/24 05:12:18;;;;;;;9.40;7.63;;;;;;;18.73;73.55;98828.13;5090174;28;20028;-72
2022/07/24 05:14:45;;;;;;;8.80;7.63;;;;;;;18.78;73.42;98837.41;5090521;28;20044;-73
2022/07/24 05:17:10;;;;;;;11.13;7.20;;;;;;;18.81;73.25;98831.97;5090308;28;20114;-72
2022/07/24 05:19:36;;;;;;;8.70;7.20;;;;;;;18.83;73.03;98832.44;5089709;28;20070;-72
2022/07/24 05:22:02;;;;;;;8.60;7.40;;;;;;;18.87;72.90;98835.34;5090230;28;20511;-72
2022/07/24 05:24:27;;;;;;;9.43;7.65;;;;;;;18.92;72.97;98843.47;5086075;28;20036;-72
2022/07/24 05:26:53;;;;;;;9.40;6.82;;;;;;;18.95;72.66;98830.84;5071194;28;20028;-71
2022/07/24 05:29:18;;;;;;;8.15;7.35;;;;;;;18.94;72.56;98838.38;5070866;28;20032;-72
2022/07/24 05:31:44;;;;;;;9.52;8.00;;;;;;;18.98;72.55;98842.09;5092088;28;20035;-72
2022/07/24 05:34:09;;;;;;;9.35;7.20;;;;;;;19.02;72.50;98828.34;5092569;28;20034;-72
2022/07/24 05:36:35;;;;;;;8.23;7.43;;;;;;;19.04;72.44;98839.94;5092953;28;20032;-72
2022/07/24 05:39:01;;;;;;;8.30;7.38;;;;;;;19.10;72.52;98843.31;5092569;28;20111;-72
2022/07/24 05:41:28;;;;;;;9.02;6.85;;;;;;;19.12;72.15;98843.78;5092769;28;20559;-71
2022/07/24 05:43:53;;;;;;;8.68;7.03;;;;;;;19.14;72.09;98841.47;5092617;28;20032;-72
2022/07/24 05:46:19;;;;;;;10.38;7.47;;;;;;;19.18;72.02;98845.19;5092569;28;20020;-72
2022/07/24 05:48:45;;;;;;;11.25;7.63;;;;;;;19.22;71.73;98842.50;5092589;28;20058;-72
2022/07/24 05:51:10;;;;;;;9.75;7.20;;;;;;;19.25;71.71;98839.88;5092296;28;20040;-72
2022/07/24 05:53:35;;;;;;;9.18;7.03;;;;;;;19.26;71.50;98835.09;5092481;28;20028;-72
2022/07/24 05:56:01;;;;;;;7.82;6.55;;;;;;;19.30;71.07;98836.88;5092619;28;20020;-72
2022/07/24 05:58:26;;;;;;;11.32;7.18;;;;;;;19.36;71.43;98843.00;5092433;28;20032;-72
2022/07/24 06:00:51;;;;;;;7.88;7.03;;;;;;;19.39;71.35;98838.72;5092106;28;20028;-72
2022/07/24 06:03:17;;;;;;;12.20;7.72;;;;;;;19.43;71.12;98834.06;5091962;28;20099;-72
2022/07/24 06:05:42;;;;;;;9.13;7.10;;;;;;;19.47;71.22;98835.84;5092185;28;20032;-72
2022/07/24 06:08:08;;;;;;;10.05;7.05;;;;;;;19.47;71.03;98835.84;5092362;28;20074;-72
2022/07/24 06:10:34;;;;;;;7.22;6.53;;;;;;;19.53;70.90;98844.75;5089626;28;20028;-72
2022/07/24 06:13:00;;;;;;;10.35;6.68;;;;;;;19.56;70.81;98841.28;5091891;28;20032;-73
2022/07/24 06:15:25;;;;;;;9.00;6.65;;;;;;;19.57;70.36;98840.13;5092237;28;20357;-72
2022/07/24 06:17:51;;;;;;;6.30;5.65;;;;;;;19.61;70.50;98843.84;5092173;28;20488;-72
2022/07/24 06:20:16;;;;;;;6.93;5.90;;;;;;;19.67;70.37;98846.38;5091224;28;20142;-73
2022/07/24 06:22:43;;;;;;;6.03;5.43;;;;;;;19.71;70.16;98844.53;5091914;28;20043;-73
2022/07/24 06:25:09;;;;;;;7.72;6.20;;;;;;;19.76;70.00;98847.09;5092449;28;20073;-73
2022/07/24 06:27:44;;;;;;;7.63;6.47;;;;;;;19.86;70.00;98849.38;5092035;28;20024;-72
2022/07/24 06:30:19;;;;;;;9.00;6.90;;;;;;;20.03;69.60;98842.78;5091867;28;20385;-73
2022/07/24 06:32:44;;;;;;;7.57;6.60;;;;;;;20.12;69.24;98853.81;5091621;28;20485;-73
2022/07/24 06:35:11;;;;;;;7.20;6.28;;;;;;;20.15;68.87;98857.84;5092049;28;20071;-72
2022/07/24 06:37:37;;;;;;;8.02;6.40;;;;;;;20.15;69.12;98855.88;5091677;28;20039;-73
2022/07/24 06:40:04;;;;;;;8.73;6.53;;;;;;;20.15;68.47;98847.53;5073499;28;20020;-73
2022/07/24 06:42:29;;;;;;;10.25;6.82;;;;;;;20.14;68.68;98850.66;5091168;28;20049;-73
2022/07/24 06:44:54;;;;;;;9.40;7.28;;;;;;;20.14;68.19;98845.09;5091343;28;20024;-73
2022/07/24 06:47:20;;;;;;;7.57;6.03;;;;;;;20.14;68.41;98854.25;5091634;28;20020;-74
2022/07/24 06:49:45;;;;;;;9.23;6.30;;;;;;;20.15;68.44;98849.50;5091560;28;20480;-73
2022/07/24 06:52:11;;;;;;;9.15;6.53;;;;;;;20.17;68.47;98844.38;5072708;28;20483;-73
2022/07/24 06:54:36;;;;;;;8.98;6.90;;;;;;;20.22;68.36;98844.16;5091191;28;20032;-73
2022/07/24 06:57:02;;;;;;;6.90;6.05;;;;;;;20.26;68.23;98844.25;5091425;28;20475;-73
2022/07/24 06:59:27;;;;;;;8.32;6.80;;;;;;;20.34;68.10;98848.88;5073240;28;20094;-73
2022/07/24 07:01:53;;;;;;;7.97;6.35;;;;;;;20.37;67.83;98849.00;5091079;28;20020;-73
2022/07/24 07:04:18;;;;;;;6.15;5.55;;;;;;;20.43;67.87;98848.72;5090927;28;20549;-72
2022/07/24 07:06:44;;;;;;;7.25;6.25;;;;;;;20.46;67.33;98854.41;5091025;28;20031;-73
2022/07/24 07:09:10;;;;;;;7.75;6.18;;;;;;;20.53;67.24;98845.44;5091008;28;20031;-73
2022/07/24 07:11:36;;;;;;;8.25;7.15;;;;;;;20.61;66.84;98852.03;5090931;28;20024;-73
2022/07/24 07:14:02;;;;;;;9.10;6.70;;;;;;;20.67;66.73;98850.59;5091991;28;20027;-73
2022/07/24 07:16:27;;;;;;;9.30;6.25;;;;;;;20.71;66.58;98850.72;5089094;28;20106;-73
2022/07/24 07:18:53;;;;;;;6.95;5.78;;;;;;;20.77;65.61;98854.91;5092140;28;20060;-73
2022/07/24 07:21:18;;;;;;;6.80;5.57;;;;;;;20.79;65.36;98845.03;5091192;28;20412;-73
2022/07/24 07:23:43;;;;;;;9.75;5.28;;;;;;;20.87;64.76;98848.00;5091879;28;20069;-72
2022/07/24 07:26:09;;;;;;;7.90;5.15;;;;;;;20.95;64.21;98853.41;5091659;28;20373;-73
2022/07/24 07:28:34;;;;;;;10.02;5.63;;;;;;;21.03;64.38;98856.41;5090760;28;20019;-72
2022/07/24 07:31:00;;;;;;;9.27;6.38;;;;;;;21.16;64.21;98857.13;5091259;28;20027;-73
2022/07/24 07:33:26;;;;;;;6.35;4.80;;;;;;;21.28;63.14;98851.50;5091552;28;20026;-73
2022/07/24 07:35:52;;;;;;;5.38;4.88;;;;;;;21.38;62.80;98867.72;5073138;28;20032;-73
2022/07/24 07:38:17;;;;;;;8.95;6.20;;;;;;;21.48;62.46;98854.38;5091431;28;20111;-73
2022/07/24 07:40:43;;;;;;;8.15;6.47;;;;;;;21.53;62.69;98856.88;5091724;28;20063;-73
2022/07/24 07:43:08;;;;;;;9.48;6.03;;;;;;;21.59;62.45;98851.88;5090869;28;20119;-72
2022/07/24 07:45:34;;;;;;;7.50;5.75;;;;;;;21.63;62.53;98856.38;5073509;28;20120;-73
2022/07/24 07:47:59;;;;;;;6.00;5.30;;;;;;;21.66;61.17;98864.03;5091648;28;20028;-74
2022/07/24 07:50:25;;;;;;;6.93;6.22;;;;;;;21.69;61.90;98862.50;5073209;28;20028;-74
2022/07/24 07:52:50;;;;;;;9.45;6.40;;;;;;;21.77;60.93;98867.09;5089890;28;20024;-74
2022/07/24 07:55:16;;;;;;;7.50;6.05;;;;;;;21.85;61.09;98868.06;5091203;28;20028;-74
2022/07/24 07:57:43;;;;;;;6.95;5.97;;;;;;;21.93;60.54;98866.25;5091434;28;20434;-73
2022/07/24 08:00:10;;;;;;;7.90;6.82;;;;;;;22.06;59.75;98864.16;5091237;28;20130;-72
2022/07/24 08:02:35;;;;;;;7.35;6.10;;;;;;;22.20;58.99;98861.72;5090840;28;20027;-73
2022/07/24 08:05:01;;;;;;;7.68;5.93;;;;;;;22.24;58.76;98868.16;5091671;28;20020;-73
2022/07/24 08:07:26;;;;;;;9.70;6.93;;;;;;;22.16;58.07;98866.41;5091074;28;20028;-73
2022/07/24 08:09:51;;;;;;;8.98;6.50;;;;;;;22.05;57.50;98870.91;5091125;28;20032;-73
2022/07/24 08:12:17;;;;;;;6.72;5.55;;;;;;;21.99;58.51;98871.19;5090443;28;20098;-74
2022/07/24 08:14:42;;;;;;;6.45;5.85;;;;;;;22.04;58.51;98869.31;5090743;28;20028;-73
2022/07/24 08:17:08;;;;;;;7.22;6.22;;;;;;;22.13;57.91;98873.50;5073133;28;20072;-73
2022/07/24 08:19:33;;;;;;;7.97;6.10;;;;;;;22.28;57.88;98876.63;5090290;28;20048;-73
2022/07/24 08:21:58;;;;;;;8.05;6.15;;;;;;;22.45;56.44;98864.25;5072295;28;20069;-73
2022/07/24 08:24:24;;;;;;;6.82;6.20;;;;;;;22.60;57.28;98868.97;5090812;28;20027;-73
2022/07/24 08:26:50;;;;;;;7.43;5.95;;;;;;;22.71;57.33;98858.00;5091306;28;20028;-73
2022/07/24 08:29:16;;;;;;;7.20;6.50;;;;;;;22.80;56.83;98868.16;5091000;28;20036;-74
2022/07/24 08:31:41;;;;;;;8.82;7.10;;;;;;;22.80;57.08;98868.97;5090827;28;20021;-73
2022/07/24 08:34:07;;;;;;;7.40;6.72;;;;;;;22.77;57.01;98866.91;5090703;28;20035;-73
2022/07/24 08:36:32;;;;;;;8.30;7.43;;;;;;;22.67;56.72;98871.09;5090862;28;20054;-72
2022/07/24 08:38:58;;;;;;;6.65;5.95;;;;;;;22.60;55.96;98868.97;5090833;28;20040;-73
2022/07/24 08:41:23;;;;;;;7.25;6.20;;;;;;;22.55;55.89;98874.84;5090791;28;20027;-73
2022/07/24 08:43:49;;;;;;;9.00;6.65;;;;;;;22.60;56.22;98870.94;5090455;28;20032;-72
2022/07/24 08:46:15;;;;;;;7.75;6.93;;;;;;;22.68;56.03;98877.50;5072941;28;20035;-73
2022/07/24 08:48:45;;;;;;;6.78;5.90;;;;;;;22.76;55.76;98870.88;5091171;28;20493;-73
2022/07/24 08:51:13;;;;;;;7.22;5.95;;;;;;;22.85;55.44;98871.47;5090177;28;20512;-73
2022/07/24 08:53:39;;;;;;;7.13;5.85;;;;;;;22.98;54.10;98866.50;5090512;28;20032;-73
2022/07/24 08:56:05;;;;;;;7.40;5.20;;;;;;;23.11;53.24;98869.94;5091103;28;20043;-73
2022/07/24 08:58:30;;;;;;;6.68;6.00;;;;;;;23.23;53.51;98857.00;5090536;28;20024;-73
2022/07/24 09:00:56;;;;;;;6.13;5.32;;;;;;;23.35;53.25;98870.81;5090612;28;20157;-73
2022/07/24 09:03:21;;;;;;;8.75;5.53;;;;;;;23.44;52.38;98874.16;5090071;28;20024;-73
2022/07/24 09:05:54;;;;;;;6.13;5.50;;;;;;;23.53;52.41;98861.91;5091827;28;20039;-73
2022/07/24 09:08:19;;;;;;;6.50;5.60;;;;;;;23.64;51.93;98863.72;5094660;28;20373;-73
2022/07/24 09:11:00;;;;;;;6.57;5.20;;;;;;;23.78;51.69;98862.34;5094712;28;20032;-74
2022/07/24 09:13:29;;;;;;;5.93;5.32;;;;;;;23.82;50.55;98871.59;5094434;28;20024;-73
2022/07/24 09:15:55;;;;;;;5.18;4.65;;;;;;;23.73;49.99;98871.03;5094719;28;20035;-73
2022/07/24 09:18:27;;;;;;;5.65;4.95;;;;;;;23.60;51.10;98871.25;5094475;28;20020;-73
2022/07/24 09:20:52;;;;;;;7.90;5.20;;;;;;;23.49;50.64;98864.66;5093765;28;20182;-73
2022/07/24 09:23:20;;;;;;;5.45;4.85;;;;;;;23.39;50.66;98868.91;5094054;28;20040;-73
2022/07/24 09:25:54;;;;;;;4.63;4.23;;;;;;;23.30;50.54;98868.34;5094370;28;20142;-73
2022/07/24 09:28:20;;;;;;;5.18;4.30;;;;;;;23.28;50.02;98873.50;5094247;28;20143;-73
2022/07/24 09:30:48;;;;;;;4.78;4.25;;;;;;;23.30;50.21;98862.75;5094302;28;20020;-72
2022/07/24 09:33:13;;;;;;;6.78;4.07;;;;;;;23.38;49.53;98861.69;5093720;28;20020;-73
2022/07/24 09:35:41;;;;;;;4.43;3.92;;;;;;;23.52;50.49;98866.72;5094026;28;20024;-73
2022/07/24 09:38:09;;;;;;;4.45;4.03;;;;;;;23.70;48.64;98871.78;5075862;28;20051;-73
2022/07/24 09:40:56;;;;;;;4.70;4.20;;;;;;;23.89;46.30;98863.31;5093913;28;20108;-71
2022/07/24 09:43:26;;;;;;;5.55;4.35;;;;;;;24.08;45.87;98870.84;5093708;28;20027;-72
2022/07/24 09:45:54;;;;;;;5.57;4.43;;;;;;;24.27;46.66;98869.09;5093963;28;20020;-71
2022/07/24 09:48:35;;;;;;;5.15;4.65;;;;;;;24.49;45.94;98875.00;5093518;28;20027;-72
2022/07/24 09:51:04;;;;;;;4.43;4.03;;;;;;;24.63;45.30;98861.16;5093403;28;20032;-72
2022/07/24 09:53:32;;;;;;;5.03;4.10;;;;;;;24.64;44.74;98867.56;5093750;28;20165;-72
2022/07/24 09:55:57;;;;;;;5.68;5.07;;;;;;;24.59;44.09;98887.53;5075367;28;20488;-72
2022/07/24 09:58:23;;;;;;;8.63;5.07;;;;;;;24.35;45.10;98864.41;5093164;28;20059;-72
2022/07/24 10:00:50;;;;;;;7.53;5.10;;;;;;;24.13;45.64;98869.69;5093028;28;20373;-72
2022/07/24 10:03:18;;;;;;;5.47;4.60;;;;;;;24.04;46.57;98867.16;5090312;28;20059;-71
2022/07/24 10:05:46;;;;;;;6.47;4.95;;;;;;;24.05;46.84;98865.97;5093278;28;20093;-72
2022/07/24 10:08:13;;;;;;;5.50;5.00;;;;;;;24.13;46.22;98866.09;5093159;28;20020;-73
2022/07/24 10:10:41;;;;;;;6.32;4.50;;;;;;;24.19;44.51;98864.59;5093424;28;20024;-72
2022/07/24 10:13:08;;;;;;;4.95;4.35;;;;;;;24.23;43.86;98862.66;5090939;28;20024;-72
2022/07/24 10:15:36;;;;;;;5.28;4.72;;;;;;;24.31;43.75;98855.13;5092840;28;20016;-72
2022/07/24 10:18:16;;;;;;;4.72;4.28;;;;;;;24.43;44.52;98849.31;5092659;28;20027;-72
2022/07/24 10:20:45;;;;;;;5.47;4.45;;;;;;;24.63;45.10;98849.13;5091369;28;20556;-72
2022/07/24 10:23:21;;;;;;;4.47;4.07;;;;;;;24.74;43.26;98855.72;5092768;28;20039;-72
2022/07/24 10:25:53;;;;;;;5.47;4.40;;;;;;;24.61;42.34;98859.91;5074666;28;20032;-72
2022/07/24 10:28:37;;;;;;;6.35;4.40;;;;;;;24.46;42.29;98856.91;5092753;28;20040;-72
2022/07/24 10:31:05;;;;;;;4.78;4.38;;;;;;;24.38;42.35;98864.44;5092309;28;20472;-72
2022/07/24 10:33:32;;;;;;;4.05;3.58;;;;;;;24.36;42.06;98841.59;5092469;28;20028;-72
2022/07/24 10:36:01;;;;;;;4.57;3.65;;;;;;;24.37;40.80;98848.00;5092325;28;20475;-73
2022/07/24 10:38:36;;;;;;;4.70;4.00;;;;;;;24.43;40.80;98849.31;5092771;28;20054;-72
2022/07/24 10:41:09;;;;;;;6.57;4.28;;;;;;;24.49;40.52;98844.16;5074120;28;20039;-73
2022/07/24 10:43:35;;;;;;;4.40;3.85;;;;;;;24.52;40.62;98837.78;5074283;28;20119;-73
2022/07/24 10:46:00;;;;;;;4.47;3.80;;;;;;;24.62;40.00;98848.34;5092223;28;20597;-72
2022/07/24 10:48:26;;;;;;;5.05;4.28;;;;;;;24.72;40.13;98844.06;5092481;28;20024;-72
2022/07/24 10:51:07;;;;;;;4.88;3.67;;;;;;;24.76;41.18;98847.72;5092187;28;20025;-72
2022/07/24 10:53:35;;;;;;;4.63;3.45;;;;;;;24.84;40.65;98847.81;5090476;28;20055;-73
2022/07/24 10:56:22;;;;;;;4.72;3.83;;;;;;;24.86;40.80;98837.81;5091562;28;20102;-72
2022/07/24 10:58:56;;;;;;;5.35;3.40;;;;;;;24.87;39.94;98833.81;5091243;28;20058;-71
2022/07/24 11:01:31;;;;;;;3.88;3.42;;;;;;;24.86;39.16;98843.41;5091607;28;20040;-72
2022/07/24 11:03:58;;;;;;;4.25;2.90;;;;;;;24.90;38.87;98844.28;5091047;28;20310;-71
2022/07/24 11:07:16;;;;;;;3.80;2.60;;;;;;;24.95;38.68;98846.72;5088523;28;20032;-71
2022/07/24 11:10:07;;;;;;;3.30;2.50;;;;;;;25.01;38.76;98841.56;5057248;28;20066;-73
2022/07/24 11:12:42;;;;;;;3.25;2.72;;;;;;;25.11;38.68;98843.69;5091387;28;20059;-71
2022/07/24 11:17:52;;;;;;;3.47;2.60;;;;;;;25.24;37.81;98846.22;5091087;28;20065;-72
2022/07/24 11:20:20;;;;;;;3.65;2.60;;;;;;;25.28;38.25;98841.44;5091220;28;20131;-72
2022/07/24 11:22:52;;;;;;;3.25;2.30;;;;;;;25.37;38.54;98835.50;5089942;28;20024;-71
2022/07/24 11:25:22;;;;;;;2.97;2.13;;;;;;;25.44;37.19;98835.63;5091721;28;20039;-71
2022/07/24 11:27:54;;;;;;;2.85;2.42;;;;;;;25.51;37.40;98829.25;5090154;28;20036;-71
2022/07/24 11:30:20;;;;;;;3.90;2.40;;;;;;;25.53;36.89;98826.84;5091748;28;20044;-73